Time;durP1;ratioP1;P1;durP2;ratioP2;P2;SDS_P1;SDS_P2;PMS_P1;PMS_P2;Temp;Humidity;BMP_temperature;BMP_pressure;BME280_temperature;BME280_humidity;BME280_pressure;Samples;Min_cycle;Max_cycle;Signal;HPM_P1;HPM_P2
2023/06/18 00:01:00;;;;;;;12.07;7.30;;;;;;;-143.48;61.61;118439.88;5092436;28;20042;-30
2023/06/18 00:03:25;;;;;;;14.75;7.75;;;;;;;-143.48;62.30;118439.88;5092862;28;20390;-29
2023/06/18 00:05:53;;;;;;;13.45;7.65;;;;;;;-143.48;63.35;118439.88;5093074;28;20069;-29
2023/06/18 00:08:19;;;;;;;16.33;7.50;;;;;;;-143.48;62.83;118439.88;5094360;28;20382;-29
2023/06/18 00:10:45;;;;;;;11.88;7.43;;;;;;;-143.48;63.16;118439.88;5093992;28;20020;-29
2023/06/18 00:13:10;;;;;;;16.15;7.40;;;;;;;-143.48;63.06;118439.88;5094189;28;20032;-30
2023/06/18 00:15:35;;;;;;;12.60;6.82;;;;;;;-143.48;63.25;118439.88;5094244;28;20094;-30
2023/06/18 00:18:01;;;;;;;13.15;7.80;;;;;;;-143.48;62.65;118439.88;5094250;28;20043;-29
2023/06/18 00:20:27;;;;;;;10.35;7.38;;;;;;;-143.48;63.31;118439.88;5093811;28;20019;-30
2023/06/18 00:22:53;;;;;;;16.65;7.55;;;;;;;-143.48;63.38;118439.88;5094046;28;20024;-29
2023/06/18 00:25:19;;;;;;;15.38;7.93;;;;;;;-143.48;63.82;118439.88;5094062;28;20028;-30
2023/06/18 00:27:44;;;;;;;14.52;7.57;;;;;;;-143.48;63.61;118439.88;5093838;28;20066;-30
2023/06/18 00:30:10;;;;;;;13.95;7.65;;;;;;;-143.48;63.63;118439.88;5093803;28;20047;-29
2023/06/18 00:32:35;;;;;;;16.83;7.78;;;;;;;-143.48;62.82;118439.88;5094024;28;20381;-30
2023/06/18 00:35:01;;;;;;;14.57;7.60;;;;;;;-143.48;62.26;118439.88;5094287;28;20489;-30
2023/06/18 00:37:29;;;;;;;15.80;7.70;;;;;;;-143.48;63.09;118439.88;5093564;28;20378;-29
2023/06/18 00:39:55;;;;;;;18.33;7.63;;;;;;;-143.48;61.37;118439.88;5093962;28;20030;-29
2023/06/18 00:42:21;;;;;;;13.00;7.70;;;;;;;-143.48;62.04;118439.88;5075558;28;20095;-29
2023/06/18 00:44:46;;;;;;;10.13;7.45;;;;;;;-143.48;62.06;118439.88;5093895;28;20020;-29
2023/06/18 00:47:12;;;;;;;13.85;7.65;;;;;;;-143.48;60.59;118439.88;5093796;28;20016;-30
2023/06/18 00:49:43;;;;;;;14.15;7.63;;;;;;;-143.48;60.38;118439.88;5093547;28;20463;-29
2023/06/18 00:52:12;;;;;;;16.50;7.20;;;;;;;-143.48;59.87;118439.88;5093362;28;20072;-30
2023/06/18 00:54:39;;;;;;;16.20;7.55;;;;;;;-143.48;60.70;118439.88;5093653;28;20089;-30
2023/06/18 00:57:08;;;;;;;12.77;7.40;;;;;;;-143.48;59.78;118439.88;5093683;28;20031;-30
2023/06/18 00:59:34;;;;;;;12.32;6.85;;;;;;;-143.48;58.96;118439.88;5093721;28;20055;-30
2023/06/18 01:02:00;;;;;;;11.68;7.40;;;;;;;-143.48;59.22;118439.88;5093922;28;20066;-29
2023/06/18 01:04:32;;;;;;;11.18;7.18;;;;;;;-143.48;59.07;118439.88;5093672;28;20099;-29
2023/06/18 01:06:59;;;;;;;12.40;7.53;;;;;;;-143.48;59.59;118439.88;5075727;28;20027;-28
2023/06/18 01:09:26;;;;;;;12.05;7.20;;;;;;;-143.48;58.82;118439.88;5093286;28;20024;-29
2023/06/18 01:11:52;;;;;;;16.08;6.95;;;;;;;-143.48;58.38;118439.88;5093277;28;20052;-28
2023/06/18 01:14:22;;;;;;;13.18;7.45;;;;;;;-143.48;58.28;118439.88;5093522;28;20460;-28
2023/06/18 01:16:49;;;;;;;12.95;7.40;;;;;;;-143.48;57.11;118439.88;5093104;28;20536;-28
2023/06/18 01:19:42;;;;;;;10.82;7.15;;;;;;;-143.48;57.12;118439.88;5093480;28;20066;-29
2023/06/18 01:22:24;;;;;;;11.10;6.72;;;;;;;-143.48;57.69;118439.88;5093254;28;20070;-29
2023/06/18 01:24:54;;;;;;;13.75;7.30;;;;;;;-143.48;57.46;118439.88;5076084;28;20020;-29
2023/06/18 01:27:21;;;;;;;11.40;7.18;;;;;;;-143.48;58.24;118439.88;5093441;28;20539;-29
2023/06/18 01:29:49;;;;;;;13.70;7.25;;;;;;;-143.48;58.15;118439.88;5093112;28;20035;-30
2023/06/18 01:32:15;;;;;;;12.82;7.13;;;;;;;-143.48;58.40;118439.88;5093929;28;20111;-30
2023/06/18 01:34:42;;;;;;;12.80;7.20;;;;;;;-143.48;58.44;118439.88;5093046;28;20070;-29
2023/06/18 01:37:24;;;;;;;11.45;7.22;;;;;;;-143.48;58.93;118439.88;5075594;28;20070;-29
2023/06/18 01:40:00;;;;;;;14.13;7.35;;;;;;;-143.48;58.43;118439.88;5094096;28;20024;-29
2023/06/18 01:42:29;;;;;;;14.77;7.32;;;;;;;-143.48;59.32;118439.88;5093510;28;20115;-29
2023/06/18 01:45:15;;;;;;;13.82;7.20;;;;;;;-143.48;58.96;118439.88;5075832;28;20032;-29
2023/06/18 01:47:44;;;;;;;12.70;7.15;;;;;;;-143.48;58.78;118439.88;5093014;28;20020;-29
2023/06/18 01:50:12;;;;;;;16.05;6.93;;;;;;;-143.48;58.34;118439.88;5095404;28;20131;-29
2023/06/18 01:52:41;;;;;;;13.90;7.10;;;;;;;-143.48;58.69;118439.88;5096985;28;20126;-29
2023/06/18 01:55:07;;;;;;;10.77;6.47;;;;;;;-143.48;58.75;118439.88;5097192;28;20116;-29
2023/06/18 01:57:33;;;;;;;10.77;6.45;;;;;;;-143.48;57.39;118439.88;5096766;28;20024;-29
2023/06/18 01:59:58;;;;;;;11.88;6.97;;;;;;;-143.48;56.16;118439.88;5097260;28;20028;-29
2023/06/18 02:02:24;;;;;;;11.02;6.75;;;;;;;-143.48;56.04;118439.88;5096537;28;20024;-29
2023/06/18 02:04:49;;;;;;;12.73;6.90;;;;;;;-143.48;56.23;118439.88;5096401;28;20020;-29
2023/06/18 02:07:15;;;;;;;11.20;6.60;;;;;;;-143.48;57.68;118439.88;5096325;28;20024;-29
2023/06/18 02:09:40;;;;;;;12.65;6.97;;;;;;;-143.48;57.64;118439.88;5097400;28;20069;-29
2023/06/18 02:12:06;;;;;;;10.32;6.60;;;;;;;-143.48;57.47;118439.88;5096284;28;20020;-29
2023/06/18 02:14:31;;;;;;;16.73;6.80;;;;;;;-143.48;58.02;118439.88;5096120;28;20103;-29
2023/06/18 02:16:57;;;;;;;10.80;6.60;;;;;;;-143.48;57.81;118439.88;5096378;28;20016;-29
2023/06/18 02:19:22;;;;;;;17.77;10.15;;;;;;;-143.48;58.16;118439.88;5096371;28;20020;-29
2023/06/18 02:21:48;;;;;;;10.40;6.88;;;;;;;-143.48;58.61;118439.88;5096307;28;20034;-28
2023/06/18 02:24:15;;;;;;;11.50;7.20;;;;;;;-143.48;58.15;118439.88;5096381;28;20355;-29
2023/06/18 02:26:40;;;;;;;11.13;6.85;;;;;;;-143.48;58.44;118439.88;5095959;28;20063;-29
2023/06/18 02:29:06;;;;;;;11.93;6.93;;;;;;;-143.48;58.48;118439.88;5095936;28;20023;-29
2023/06/18 02:31:31;;;;;;;10.45;6.72;;;;;;;-143.48;58.79;118439.88;5096151;28;20072;-29
2023/06/18 02:33:57;;;;;;;12.48;6.53;;;;;;;-143.48;58.53;118439.88;5096175;28;20028;-29
2023/06/18 02:36:22;;;;;;;12.00;6.65;;;;;;;-143.48;58.15;118439.88;5096018;28;20455;-29
2023/06/18 02:38:48;;;;;;;12.13;6.57;;;;;;;-143.48;57.91;118439.88;5095691;28;20437;-29
2023/06/18 02:41:13;;;;;;;12.52;6.60;;;;;;;-143.48;57.65;118439.88;5095972;28;20024;-30
2023/06/18 02:43:39;;;;;;;14.60;6.72;;;;;;;-143.48;58.06;118439.88;5095944;28;20103;-29
2023/06/18 02:46:04;;;;;;;11.73;7.00;;;;;;;-143.48;58.66;118439.88;5096131;28;20025;-29
2023/06/18 02:48:29;;;;;;;11.30;6.95;;;;;;;-143.48;58.15;118439.88;5096109;28;20027;-29
2023/06/18 02:50:55;;;;;;;9.88;6.30;;;;;;;-143.48;58.49;118439.88;5095387;28;20498;-29
2023/06/18 02:53:20;;;;;;;14.68;6.93;;;;;;;-143.48;58.83;118439.88;5095734;28;20146;-29
2023/06/18 02:55:45;;;;;;;16.70;7.10;;;;;;;-143.48;59.17;118439.88;5095926;28;20035;-29
2023/06/18 02:58:27;;;;;;;10.45;6.60;;;;;;;-143.48;59.36;118439.88;5095648;28;20370;-29
2023/06/18 03:00:53;;;;;;;11.95;6.63;;;;;;;-143.48;59.01;118439.88;5095192;28;20028;-29
2023/06/18 03:03:19;;;;;;;10.70;6.80;;;;;;;-143.48;58.85;118439.88;5095587;28;20024;-29
2023/06/18 03:05:45;;;;;;;10.43;6.70;;;;;;;-143.48;59.29;118439.88;5095478;28;20077;-29
2023/06/18 03:08:11;;;;;;;16.02;7.25;;;;;;;-143.48;59.57;118439.88;5095495;28;20478;-29
2023/06/18 03:10:36;;;;;;;10.00;6.68;;;;;;;-143.48;59.42;118439.88;5095402;28;20024;-29
2023/06/18 03:13:01;;;;;;;10.77;6.63;;;;;;;-143.48;59.36;118439.88;5095580;28;20024;-29
2023/06/18 03:15:26;;;;;;;11.95;7.10;;;;;;;-143.48;58.90;118439.88;5095513;28;20102;-29
2023/06/18 03:17:52;;;;;;;12.15;7.30;;;;;;;-143.48;59.36;118439.88;5095193;28;20020;-29
2023/06/18 03:20:18;;;;;;;13.43;7.00;;;;;;;-143.48;59.10;118439.88;5095228;28;20031;-30
2023/06/18 03:22:43;;;;;;;12.65;6.47;;;;;;;-143.48;58.97;118439.88;5095198;28;20482;-29
2023/06/18 03:25:08;;;;;;;11.90;6.93;;;;;;;-143.48;59.30;118439.88;5094744;28;20378;-29
2023/06/18 03:27:33;;;;;;;12.05;7.15;;;;;;;-143.48;59.81;118439.88;5095049;28;20031;-29
2023/06/18 03:29:59;;;;;;;11.23;6.78;;;;;;;-143.48;59.90;118439.88;5094692;28;20027;-29
2023/06/18 03:32:24;;;;;;;9.77;6.97;;;;;;;-143.48;59.53;118439.88;5095019;28;20153;-30
2023/06/18 03:34:50;;;;;;;11.45;6.97;;;;;;;-143.48;58.50;118439.88;5094946;28;20031;-29
2023/06/18 03:37:17;;;;;;;11.02;6.97;;;;;;;-143.48;59.20;118439.88;5094715;28;20020;-29
2023/06/18 03:39:42;;;;;;;12.70;6.75;;;;;;;-143.48;59.13;118439.88;5094832;28;20467;-29
2023/06/18 03:42:08;;;;;;;12.13;7.07;;;;;;;-143.48;58.98;118439.88;5094467;28;20031;-29
2023/06/18 03:44:33;;;;;;;12.75;6.72;;;;;;;-143.48;58.45;118439.88;5094765;28;20055;-29
2023/06/18 03:46:58;;;;;;;9.98;7.22;;;;;;;-143.48;59.22;118439.88;5094732;28;20062;-29
2023/06/18 03:49:24;;;;;;;12.77;7.38;;;;;;;-143.48;58.99;118439.88;5094959;28;20573;-29
2023/06/18 03:51:49;;;;;;;12.25;6.85;;;;;;;-143.48;59.81;118439.88;5094248;28;20119;-29
2023/06/18 03:54:14;;;;;;;14.10;7.07;;;;;;;-143.48;58.98;118439.88;5094891;28;20028;-29
2023/06/18 03:56:40;;;;;;;13.23;6.88;;;;;;;-143.48;58.55;118439.88;5094443;28;20016;-29
2023/06/18 03:59:07;;;;;;;9.95;6.72;;;;;;;-143.48;58.48;118439.88;5094454;28;20444;-29
2023/06/18 04:01:32;;;;;;;11.65;6.85;;;;;;;-143.48;59.00;118439.88;5094495;28;20052;-29
2023/06/18 04:03:57;;;;;;;11.30;7.15;;;;;;;-143.48;58.77;118439.88;5094212;28;20027;-29
2023/06/18 04:06:23;;;;;;;13.80;7.38;;;;;;;-143.48;58.87;118439.88;5094022;28;20481;-29
2023/06/18 04:08:48;;;;;;;10.23;6.72;;;;;;;-143.48;58.67;118439.88;5093999;28;20035;-29
2023/06/18 04:11:13;;;;;;;11.07;7.03;;;;;;;-143.48;58.23;118439.88;5093781;28;20035;-29
2023/06/18 04:13:40;;;;;;;10.57;6.65;;;;;;;-143.48;57.68;118439.88;5093776;28;20020;-29
2023/06/18 04:16:05;;;;;;;11.15;6.65;;;;;;;-143.48;57.67;118439.88;5094678;28;20036;-29
2023/06/18 04:18:30;;;;;;;13.63;6.68;;;;;;;-143.48;57.12;118439.88;5094464;28;20020;-29
2023/06/18 04:20:56;;;;;;;10.45;6.68;;;;;;;-143.48;56.95;118439.88;5094161;28;20024;-29
2023/06/18 04:23:21;;;;;;;10.95;6.88;;;;;;;-143.48;56.51;118439.88;5093862;28;20356;-29
2023/06/18 04:25:46;;;;;;;12.35;6.57;;;;;;;-143.48;56.78;118439.88;5094110;28;20027;-29
2023/06/18 04:28:11;;;;;;;11.30;6.65;;;;;;;-143.48;57.74;118439.88;5093720;28;20401;-29
2023/06/18 04:30:37;;;;;;;12.68;6.80;;;;;;;-143.48;57.11;118439.88;5093789;28;20111;-29
2023/06/18 04:33:02;;;;;;;9.82;6.78;;;;;;;-143.48;57.16;118439.88;5093996;28;20047;-29
2023/06/18 04:35:27;;;;;;;13.98;7.00;;;;;;;-143.48;57.21;118439.88;5093768;28;20043;-29
2023/06/18 04:37:53;;;;;;;12.13;6.75;;;;;;;-143.48;58.18;118439.88;5093575;28;20102;-29
2023/06/18 04:40:18;;;;;;;10.23;6.65;;;;;;;-143.48;57.47;118439.88;5093896;28;20077;-29
2023/06/18 04:42:45;;;;;;;13.65;7.35;;;;;;;-143.48;57.93;118439.88;5093864;28;20031;-29
2023/06/18 04:45:10;;;;;;;13.73;7.47;;;;;;;-143.48;56.82;118439.88;5093599;28;20024;-29
2023/06/18 04:47:36;;;;;;;12.90;7.00;;;;;;;-143.48;57.64;118439.88;5093737;28;20024;-29
2023/06/18 04:50:02;;;;;;;14.55;7.13;;;;;;;-143.48;58.98;118439.88;5093620;28;20378;-30
2023/06/18 04:52:28;;;;;;;14.43;7.10;;;;;;;-143.48;58.26;118439.88;5093726;28;20036;-29
2023/06/18 04:54:53;;;;;;;11.35;6.95;;;;;;;-143.48;58.37;118439.88;5093459;28;20544;-29
2023/06/18 04:57:19;;;;;;;14.90;7.80;;;;;;;-143.48;58.30;118439.88;5093321;28;20031;-29
2023/06/18 04:59:45;;;;;;;13.40;7.47;;;;;;;-143.48;57.99;118439.88;5093659;28;20024;-29
2023/06/18 05:02:10;;;;;;;11.95;7.55;;;;;;;-143.48;57.75;118439.88;5093382;28;20342;-29
2023/06/18 05:04:35;;;;;;;12.13;7.07;;;;;;;-143.48;58.37;118439.88;5093623;28;20474;-29
2023/06/18 05:07:01;;;;;;;11.88;7.63;;;;;;;-143.48;57.21;118439.88;5093389;28;20417;-29
2023/06/18 05:09:27;;;;;;;13.95;7.47;;;;;;;-143.48;58.11;118439.88;5093295;28;20119;-29
2023/06/18 05:11:52;;;;;;;12.93;7.45;;;;;;;-143.48;57.11;118439.88;5093525;28;20056;-29
2023/06/18 05:14:18;;;;;;;10.10;7.28;;;;;;;-143.48;56.06;118439.88;5093504;28;20518;-29
2023/06/18 05:16:43;;;;;;;20.88;7.68;;;;;;;-143.48;56.43;118439.88;5093198;28;20032;-29
2023/06/18 05:19:08;;;;;;;12.25;7.70;;;;;;;-143.48;56.22;118439.88;5093223;28;20020;-29
2023/06/18 05:21:33;;;;;;;13.20;7.30;;;;;;;-143.48;57.35;118439.88;5093495;28;20039;-29
2023/06/18 05:23:59;;;;;;;11.60;7.68;;;;;;;-143.48;57.21;118439.88;5094620;28;20048;-29
2023/06/18 05:26:24;;;;;;;11.23;7.47;;;;;;;-143.48;56.60;118439.88;5097504;28;20074;-29
2023/06/18 05:28:50;;;;;;;11.80;7.20;;;;;;;-143.48;55.51;118439.88;5097437;28;20125;-29
2023/06/18 05:31:15;;;;;;;13.00;7.55;;;;;;;-143.48;53.05;118439.88;5097143;28;20110;-29
2023/06/18 05:33:41;;;;;;;15.05;7.15;;;;;;;-143.48;54.39;118439.88;5097383;28;20019;-29
2023/06/18 05:36:06;;;;;;;12.20;7.50;;;;;;;-143.48;54.18;118439.88;5096918;28;20031;-29
2023/06/18 05:38:31;;;;;;;17.98;7.57;;;;;;;-143.48;51.81;118439.88;5097430;28;20024;-29
2023/06/18 05:40:57;;;;;;;13.13;7.25;;;;;;;-143.48;50.15;118439.88;5096930;28;20448;-29
2023/06/18 05:43:22;;;;;;;15.50;7.43;;;;;;;-143.48;52.15;118439.88;5097068;28;20020;-29
2023/06/18 05:45:48;;;;;;;16.33;7.45;;;;;;;-143.48;52.03;118439.88;5096943;28;20360;-29
2023/06/18 05:48:14;;;;;;;12.73;7.47;;;;;;;-143.48;50.75;118439.88;5096926;28;20058;-30
2023/06/18 05:50:40;;;;;;;14.82;6.85;;;;;;;-143.48;48.80;118439.88;5096755;28;20119;-30
2023/06/18 05:53:06;;;;;;;13.65;7.25;;;;;;;-143.48;46.27;118439.88;5097010;28;20028;-31
2023/06/18 05:55:31;;;;;;;10.15;6.50;;;;;;;-143.48;47.44;118439.88;5096896;28;20030;-29
2023/06/18 05:57:56;;;;;;;14.55;7.35;;;;;;;-143.48;49.36;118439.88;5096907;28;20501;-29
2023/06/18 06:00:22;;;;;;;14.95;7.32;;;;;;;-143.48;49.56;118439.88;5096749;28;20490;-29
2023/06/18 06:02:47;;;;;;;12.85;7.15;;;;;;;-143.48;48.66;118439.88;5078339;28;20027;-31
2023/06/18 06:05:12;;;;;;;16.52;7.28;;;;;;;-143.48;50.66;118439.88;5097325;28;20051;-28
2023/06/18 06:07:37;;;;;;;11.50;6.93;;;;;;;-143.48;51.99;118439.88;5096431;28;20031;-29
2023/06/18 06:10:03;;;;;;;13.07;7.38;;;;;;;-143.48;49.82;118439.88;5096628;28;20031;-29
2023/06/18 06:12:29;;;;;;;13.40;6.88;;;;;;;-143.48;50.21;118439.88;5096579;28;20370;-28
2023/06/18 06:14:54;;;;;;;12.20;7.07;;;;;;;-143.48;46.98;118439.88;5096624;28;20052;-29
2023/06/18 06:17:24;;;;;;;11.63;7.55;;;;;;;-143.48;46.39;118439.88;5096409;28;20032;-29
2023/06/18 06:19:50;;;;;;;14.38;7.47;;;;;;;-143.48;44.20;118439.88;5078160;28;20056;-30
2023/06/18 06:22:15;;;;;;;13.70;7.40;;;;;;;-143.48;43.62;118439.88;5096226;28;20063;-29
2023/06/18 06:24:46;;;;;;;10.52;6.97;;;;;;;-143.48;43.63;118439.88;5096492;28;20028;-29
2023/06/18 06:27:22;;;;;;;21.45;7.25;;;;;;;-143.48;41.90;118439.88;5078279;28;20490;-29
2023/06/18 06:29:47;;;;;;;12.73;7.53;;;;;;;-143.48;42.10;118439.88;5096090;28;20072;-29
2023/06/18 06:32:13;;;;;;;13.68;7.22;;;;;;;-143.48;41.28;118439.88;5096644;28;20028;-29
2023/06/18 06:34:40;;;;;;;13.57;7.43;;;;;;;-143.48;41.28;118439.88;5077593;28;20090;-29
2023/06/18 06:37:06;;;;;;;10.77;6.82;;;;;;;-143.48;42.10;118439.88;5095776;28;20016;-30
2023/06/18 06:39:31;;;;;;;13.82;7.50;;;;;;;-143.48;44.88;118439.88;5096136;28;20024;-30
2023/06/18 06:41:57;;;;;;;12.48;7.13;;;;;;;-143.48;43.87;118439.88;5095897;28;20028;-29
2023/06/18 06:44:22;;;;;;;13.45;7.25;;;;;;;-143.48;42.76;118439.88;5077563;28;20096;-29
2023/06/18 06:46:48;;;;;;;11.75;7.55;;;;;;;-143.48;43.35;118439.88;5095886;28;20122;-29
2023/06/18 06:49:13;;;;;;;9.98;6.95;;;;;;;-143.48;42.19;118439.88;5096232;28;20031;-29
2023/06/18 06:51:38;;;;;;;12.02;7.10;;;;;;;-143.48;41.91;118439.88;5095323;28;20043;-30
2023/06/18 06:54:05;;;;;;;15.90;7.13;;;;;;;-143.48;42.78;118439.88;5095917;28;20023;-29
2023/06/18 06:56:31;;;;;;;15.32;7.10;;;;;;;-143.48;41.89;118439.88;5077716;28;20421;-29
2023/06/18 06:58:57;;;;;;;11.43;6.88;;;;;;;-143.48;40.87;118439.88;5095829;28;20027;-30
2023/06/18 07:01:22;;;;;;;11.75;6.80;;;;;;;-143.48;41.47;118439.88;5095436;28;20027;-29
2023/06/18 07:03:47;;;;;;;12.45;6.50;;;;;;;-143.48;41.61;118439.88;5076461;28;20514;-29
2023/06/18 07:06:13;;;;;;;11.70;6.90;;;;;;;-143.48;41.45;118439.88;5094106;28;20463;-29
2023/06/18 07:08:38;;;;;;;14.77;6.60;;;;;;;-143.48;41.86;118439.88;5093804;28;20028;-29
2023/06/18 07:11:04;;;;;;;16.38;6.95;;;;;;;-143.48;41.42;118439.88;5094326;28;20067;-30
2023/06/18 07:13:29;;;;;;;10.65;6.45;;;;;;;-143.48;41.06;118439.88;5095014;28;20050;-29
2023/06/18 07:15:55;;;;;;;12.52;6.30;;;;;;;-143.48;40.69;118439.88;5094727;28;20020;-30
2023/06/18 07:18:20;;;;;;;12.48;6.18;;;;;;;-143.48;40.71;118439.88;5095162;28;20036;-29
2023/06/18 07:20:45;;;;;;;11.55;7.15;;;;;;;-143.48;41.00;118439.88;5095413;28;20367;-29
2023/06/18 07:23:11;;;;;;;10.73;6.50;;;;;;;-143.48;41.32;118439.88;5095088;28;20036;-29
2023/06/18 07:25:36;;;;;;;10.20;6.47;;;;;;;-143.48;41.73;118439.88;5095034;28;20125;-29
2023/06/18 07:28:02;;;;;;;11.18;6.53;;;;;;;-143.48;42.68;118439.88;5094688;28;20020;-29
2023/06/18 07:30:27;;;;;;;10.70;6.82;;;;;;;-143.48;42.68;118439.88;5076428;28;20024;-29
2023/06/18 07:32:52;;;;;;;13.70;7.03;;;;;;;-143.48;43.08;118439.88;5094802;28;20028;-29
2023/06/18 07:35:18;;;;;;;14.57;7.03;;;;;;;-143.48;42.91;118439.88;5094796;28;20371;-29
2023/06/18 07:37:43;;;;;;;17.48;7.32;;;;;;;-143.48;42.70;118439.88;5094351;28;20073;-29
2023/06/18 07:40:09;;;;;;;15.90;7.97;;;;;;;-143.48;42.70;118439.88;5094732;28;20035;-29
2023/06/18 07:42:34;;;;;;;13.82;7.80;;;;;;;-143.48;41.90;118439.88;5094259;28;20524;-29
2023/06/18 07:45:00;;;;;;;17.88;8.05;;;;;;;-143.48;41.77;118439.88;5094467;28;20024;-30
2023/06/18 07:47:25;;;;;;;17.20;8.10;;;;;;;-143.48;41.77;118439.88;5093773;28;20047;-29
2023/06/18 07:49:51;;;;;;;13.05;7.22;;;;;;;-143.48;41.24;118439.88;5094550;28;20032;-29
2023/06/18 07:52:16;;;;;;;13.75;7.88;;;;;;;-143.48;41.00;118439.88;5094655;28;20123;-29
2023/06/18 07:54:42;;;;;;;14.30;7.75;;;;;;;-143.48;40.02;118439.88;5094526;28;20083;-29
2023/06/18 07:57:07;;;;;;;17.48;7.82;;;;;;;-143.48;39.97;118439.88;5094639;28;20107;-29
2023/06/18 07:59:32;;;;;;;12.52;7.82;;;;;;;-143.48;39.25;118439.88;5094359;28;20032;-29
2023/06/18 08:01:57;;;;;;;12.32;7.65;;;;;;;-143.48;40.25;118439.88;5094051;28;20082;-29
2023/06/18 08:04:23;;;;;;;13.82;8.20;;;;;;;-143.48;39.14;118439.88;5094227;28;20024;-30
2023/06/18 08:06:50;;;;;;;17.00;7.70;;;;;;;-143.48;38.95;118439.88;5094172;28;20485;-30
2023/06/18 08:09:15;;;;;;;16.52;7.55;;;;;;;-143.48;39.12;118439.88;5094209;28;20393;-29
2023/06/18 08:11:41;;;;;;;19.25;7.57;;;;;;;-143.48;39.06;118439.88;5093860;28;20016;-30
2023/06/18 08:14:07;;;;;;;11.07;7.40;;;;;;;-143.48;38.63;118439.88;5093806;28;20031;-30
2023/06/18 08:16:32;;;;;;;14.88;7.43;;;;;;;-143.48;38.92;118439.88;5093682;28;20065;-30
2023/06/18 08:18:58;;;;;;;11.57;7.30;;;;;;;-143.48;38.50;118439.88;5094086;28;20019;-30
2023/06/18 08:21:23;;;;;;;10.88;7.20;;;;;;;-143.48;38.34;118439.88;5093652;28;20020;-30
2023/06/18 08:23:49;;;;;;;13.45;6.88;;;;;;;-143.48;37.73;118439.88;5094763;28;20039;-30
2023/06/18 08:26:15;;;;;;;16.20;7.13;;;;;;;-143.48;37.20;118439.88;5093481;28;20024;-30
2023/06/18 08:28:40;;;;;;;14.32;7.40;;;;;;;-143.48;36.94;118439.88;5093777;28;20077;-30
2023/06/18 08:31:05;;;;;;;14.68;7.00;;;;;;;-143.48;36.93;118439.88;5093550;28;20095;-30
2023/06/18 08:33:31;;;;;;;13.93;6.60;;;;;;;-143.48;36.21;118439.88;5093785;28;20031;-30
2023/06/18 08:35:56;;;;;;;17.30;6.63;;;;;;;-143.48;35.85;118439.88;5093792;28;20032;-30
2023/06/18 08:38:21;;;;;;;12.57;6.80;;;;;;;-143.48;35.68;118439.88;5093420;28;20051;-30
2023/06/18 08:40:52;;;;;;;9.38;6.07;;;;;;;-143.48;35.66;118439.88;5093385;28;20024;-30
2023/06/18 08:43:26;;;;;;;9.45;6.07;;;;;;;-143.48;34.98;118439.88;5093724;28;20430;-30
2023/06/18 08:45:52;;;;;;;14.30;6.90;;;;;;;-143.48;36.06;118439.88;5093593;28;20121;-30
2023/06/18 08:48:24;;;;;;;10.07;6.20;;;;;;;-143.48;35.63;118439.88;5093416;28;20024;-31
2023/06/18 08:50:53;;;;;;;10.07;5.70;;;;;;;-143.48;34.37;118439.88;5093489;28;20394;-30
2023/06/18 08:53:25;;;;;;;12.55;6.32;;;;;;;-143.48;34.03;118439.88;5093308;28;20028;-30
2023/06/18 08:55:51;;;;;;;7.95;5.95;;;;;;;-143.48;33.88;118439.88;5093516;28;20020;-29
2023/06/18 08:58:21;;;;;;;8.15;5.70;;;;;;;-143.48;34.31;118439.88;5095709;28;20035;-30
2023/06/18 09:00:51;;;;;;;8.18;5.32;;;;;;;-143.48;33.60;118439.88;5100140;28;20047;-30
2023/06/18 09:03:17;;;;;;;15.07;5.53;;;;;;;-143.48;34.15;118439.88;5099752;28;20062;-30
2023/06/18 09:05:44;;;;;;;11.60;5.60;;;;;;;-143.48;33.52;118439.88;5099970;28;20027;-29
2023/06/18 09:08:10;;;;;;;18.02;6.07;;;;;;;-143.48;33.89;118439.88;5100148;28;20072;-31
2023/06/18 09:10:36;;;;;;;13.75;5.75;;;;;;;-143.48;33.54;118439.88;5100237;28;20377;-29
2023/06/18 09:13:02;;;;;;;12.63;6.20;;;;;;;-143.48;34.47;118439.88;5099973;28;20024;-30
2023/06/18 09:15:27;;;;;;;10.43;5.70;;;;;;;-143.48;34.22;118439.88;5099913;28;20028;-30
2023/06/18 09:17:53;;;;;;;7.43;5.25;;;;;;;-143.48;34.78;118439.88;5099728;28;20035;-29
2023/06/18 09:20:20;;;;;;;12.85;6.20;;;;;;;-143.48;34.15;118439.88;5099803;28;20050;-30
2023/06/18 09:22:47;;;;;;;10.57;6.00;;;;;;;-143.48;33.37;118439.88;5100084;28;20059;-29
2023/06/18 09:25:22;;;;;;;12.63;5.45;;;;;;;-143.48;33.82;118439.88;5099909;28;20030;-30
2023/06/18 09:27:48;;;;;;;9.70;5.80;;;;;;;-143.48;33.64;118439.88;5100463;28;20020;-30
2023/06/18 09:30:22;;;;;;;10.90;5.47;;;;;;;-143.48;33.87;118439.88;5099881;28;20020;-30
2023/06/18 09:32:48;;;;;;;13.48;5.55;;;;;;;-143.48;34.86;118439.88;5100160;28;20475;-30
2023/06/18 09:35:18;;;;;;;10.45;6.07;;;;;;;-143.48;34.28;118439.88;5081705;28;20052;-29
2023/06/18 09:37:44;;;;;;;11.98;6.15;;;;;;;-143.48;34.70;118439.88;5081436;28;20040;-30
2023/06/18 09:40:21;;;;;;;7.97;5.70;;;;;;;-143.48;34.69;118439.88;5099643;28;20016;-31
2023/06/18 09:42:51;;;;;;;10.55;6.03;;;;;;;-143.48;34.83;118439.88;5099870;28;20023;-30
2023/06/18 09:45:18;;;;;;;8.48;5.97;;;;;;;-143.48;34.58;118439.88;5099711;28;20379;-29
2023/06/18 09:47:47;;;;;;;11.65;6.43;;;;;;;-143.48;34.64;118439.88;5099736;28;20016;-29
2023/06/18 09:50:12;;;;;;;9.52;6.63;;;;;;;-143.48;34.72;118439.88;5099546;28;20028;-30
2023/06/18 09:52:55;;;;;;;8.38;6.00;;;;;;;-143.48;34.29;118439.88;5099743;28;20020;-29
2023/06/18 09:55:31;;;;;;;9.15;6.68;;;;;;;-143.48;34.46;118439.88;5099947;28;20028;-29
2023/06/18 09:57:58;;;;;;;9.32;6.65;;;;;;;-143.48;34.30;118439.88;5099276;28;20024;-29
2023/06/18 10:00:24;;;;;;;13.05;6.55;;;;;;;-143.48;34.12;118439.88;5099825;28;20073;-29
2023/06/18 10:02:49;;;;;;;9.23;6.10;;;;;;;-143.48;35.11;118439.88;5099510;28;20030;-29
2023/06/18 10:05:15;;;;;;;13.00;6.15;;;;;;;-143.48;33.89;118439.88;5099793;28;20094;-29
2023/06/18 10:07:41;;;;;;;10.35;6.22;;;;;;;-143.48;33.67;118439.88;5099731;28;20024;-29
2023/06/18 10:10:13;;;;;;;10.10;6.07;;;;;;;-143.48;34.31;118439.88;5097395;28;20016;-29
2023/06/18 10:12:41;;;;;;;17.05;6.47;;;;;;;-143.48;33.79;118439.88;5096625;28;20066;-29
2023/06/18 10:15:08;;;;;;;15.98;6.13;;;;;;;-143.48;33.64;118439.88;5096575;28;20027;-30
2023/06/18 10:17:35;;;;;;;9.23;6.00;;;;;;;-143.48;33.65;118439.88;5096168;28;20509;-30
2023/06/18 10:20:07;;;;;;;13.13;6.45;;;;;;;-143.48;33.87;118439.88;5096490;28;20016;-29
2023/06/18 10:22:59;;;;;;;9.95;6.10;;;;;;;-143.48;33.91;118439.88;5096968;28;20514;-30
2023/06/18 10:25:25;;;;;;;10.07;5.78;;;;;;;-143.48;33.57;118439.88;5085286;28;20036;-29
2023/06/18 10:27:51;;;;;;;8.07;5.70;;;;;;;-143.48;33.92;118439.88;5096357;28;20020;-29
2023/06/18 10:30:17;;;;;;;12.00;6.65;;;;;;;-143.48;33.53;118439.88;5096052;28;20475;-29
2023/06/18 10:32:43;;;;;;;10.20;6.22;;;;;;;-143.48;34.32;118439.88;5095933;28;20097;-29
2023/06/18 10:35:11;;;;;;;14.63;5.82;;;;;;;-143.48;33.96;118439.88;5095906;28;20059;-29
2023/06/18 10:37:38;;;;;;;9.65;6.20;;;;;;;-143.48;34.05;118439.88;5095719;28;20024;-29
2023/06/18 10:40:05;;;;;;;9.50;6.00;;;;;;;-143.48;33.98;118439.88;5096271;28;20020;-29
2023/06/18 10:42:32;;;;;;;10.88;5.88;;;;;;;-143.48;34.67;118439.88;5095312;28;20020;-29
2023/06/18 10:45:07;;;;;;;7.53;5.53;;;;;;;-143.48;34.16;118439.88;5095330;28;20028;-29
2023/06/18 10:47:33;;;;;;;9.68;5.70;;;;;;;-143.48;34.63;118439.88;5095652;28;20016;-29
2023/06/18 10:50:07;;;;;;;9.32;6.10;;;;;;;-143.48;34.53;118439.88;5077173;28;20081;-30
2023/06/18 10:52:40;;;;;;;8.82;5.72;;;;;;;-143.48;35.07;118439.88;5095921;28;20494;-29
2023/06/18 10:55:26;;;;;;;11.30;5.90;;;;;;;-143.48;34.42;118439.88;5077047;28;20458;-29
2023/06/18 10:58:02;;;;;;;12.20;5.97;;;;;;;-143.48;34.86;118439.88;5075165;28;20115;-29
2023/06/18 11:00:46;;;;;;;10.50;6.22;;;;;;;-143.48;35.31;118439.88;5093275;28;20028;-29